Time;durP1;ratioP1;P1;durP2;ratioP2;P2;SDS_P1;SDS_P2;PMS_P1;PMS_P2;Temp;Humidity;BMP_temperature;BMP_pressure;BME280_temperature;BME280_humidity;BME280_pressure;Samples;Min_cycle;Max_cycle;Signal;HPM_P1;HPM_P2
2023/02/10 00:00:25;;;;;;;14.10;10.57;;;6.10;79.10;;;;;;5116522;28;20063;-86
2023/02/10 00:02:51;;;;;;;12.48;10.18;;;6.10;79.20;;;;;;5099674;28;20027;-87
2023/02/10 00:05:17;;;;;;;13.02;9.98;;;6.10;79.20;;;;;;5133546;27;20117;-89
2023/02/10 00:07:43;;;;;;;14.63;10.50;;;6.00;79.20;;;;;;5117312;28;20027;-88
2023/02/10 00:10:08;;;;;;;13.23;10.57;;;6.00;79.20;;;;;;5133254;27;20035;-88
2023/02/10 00:12:38;;;;;;;11.90;9.57;;;6.00;79.20;;;;;;5116314;28;20028;-88
2023/02/10 00:15:05;;;;;;;13.60;10.55;;;6.00;79.30;;;;;;5116438;27;20043;-88
2023/02/10 00:17:31;;;;;;;11.55;9.75;;;6.00;79.30;;;;;;5099414;28;20032;-87
2023/02/10 00:19:56;;;;;;;12.90;10.73;;;5.90;79.30;;;;;;5098935;28;20127;-87
2023/02/10 00:22:22;;;;;;;13.43;9.82;;;6.00;79.30;;;;;;5132857;27;20027;-88
2023/02/10 00:24:48;;;;;;;13.75;9.60;;;5.90;79.30;;;;;;5116193;28;20027;-88
2023/02/10 00:27:14;;;;;;;11.73;9.35;;;5.90;79.30;;;;;;5115909;28;20081;-88
2023/02/10 00:29:40;;;;;;;12.63;10.18;;;5.90;79.30;;;;;;5115780;28;20062;-87
2023/02/10 00:32:05;;;;;;;13.02;10.60;;;5.90;79.30;;;;;;5116032;27;20020;-87
2023/02/10 00:34:31;;;;;;;12.98;10.18;;;5.90;79.30;;;;;;5115410;28;20030;-87
2023/02/10 00:36:57;;;;;;;13.82;10.27;;;5.80;79.30;;;;;;5115851;28;20032;-87
2023/02/10 00:39:23;;;;;;;11.85;9.68;;;5.90;79.40;;;;;;5133542;27;20059;-88
2023/02/10 00:41:49;;;;;;;13.20;10.00;;;5.80;79.40;;;;;;5133071;27;20080;-87
2023/02/10 00:44:14;;;;;;;13.93;10.57;;;5.80;79.50;;;;;;5116397;28;20027;-87
2023/02/10 00:46:40;;;;;;;12.35;10.02;;;5.80;79.50;;;;;;5132391;27;20056;-87
2023/02/10 00:49:06;;;;;;;12.57;10.05;;;5.80;80.10;;;;;;5115480;28;20039;-86
2023/02/10 00:51:34;;;;;;;12.35;10.07;;;5.80;79.50;;;;;;5116500;27;20453;-87
2023/02/10 00:54:00;;;;;;;12.32;9.75;;;5.80;79.50;;;;;;5098640;28;20030;-86
2023/02/10 00:56:26;;;;;;;11.90;9.55;;;5.80;79.40;;;;;;5115328;28;20102;-88
2023/02/10 00:58:52;;;;;;;13.60;9.80;;;5.80;79.40;;;;;;5114843;28;20031;-87
2023/02/10 01:01:17;;;;;;;13.30;10.38;;;5.80;79.50;;;;;;5132289;27;20049;-87
2023/02/10 01:03:43;;;;;;;13.05;10.43;;;5.70;79.40;;;;;;5132423;27;20034;-87
2023/02/10 01:06:12;;;;;;;11.82;9.43;;;5.80;79.50;;;;;;5132809;27;20035;-87
2023/02/10 01:08:38;;;;;;;13.40;10.18;;;5.80;79.50;;;;;;5132964;27;20028;-87
2023/02/10 01:11:07;;;;;;;12.80;9.20;;;5.70;79.40;;;;;;5131719;27;20505;-88
2023/02/10 01:13:37;;;;;;;13.10;10.02;;;5.80;79.50;;;;;;5131945;27;20040;-88
2023/02/10 01:16:06;;;;;;;13.25;10.18;;;5.80;79.50;;;;;;5115010;28;20024;-88
2023/02/10 01:18:32;;;;;;;12.63;9.55;;;5.70;79.50;;;;;;5132572;27;20027;-87
2023/02/10 01:20:57;;;;;;;13.85;9.63;;;5.70;79.50;;;;;;5114824;28;20337;-89
2023/02/10 01:23:23;;;;;;;12.85;9.48;;;5.70;79.50;;;;;;5115761;28;20023;-88
2023/02/10 01:25:49;;;;;;;13.25;10.48;;;5.70;79.50;;;;;;5098817;28;20035;-87
2023/02/10 01:28:15;;;;;;;12.93;9.48;;;5.70;79.60;;;;;;5132722;27;20422;-88
2023/02/10 01:30:40;;;;;;;11.23;9.18;;;5.70;79.60;;;;;;5131481;27;20377;-87
2023/02/10 01:33:06;;;;;;;12.88;9.70;;;5.70;79.60;;;;;;5132616;27;20068;-87
2023/02/10 01:35:32;;;;;;;13.35;9.23;;;5.60;79.60;;;;;;5132204;27;20028;-87
2023/02/10 01:37:58;;;;;;;11.68;8.95;;;5.70;79.60;;;;;;5115210;28;20031;-87
2023/02/10 01:40:25;;;;;;;12.68;9.73;;;5.70;79.60;;;;;;5116941;28;20035;-87
2023/02/10 01:42:51;;;;;;;13.05;9.77;;;5.70;79.70;;;;;;5117615;28;20035;-87
2023/02/10 01:45:20;;;;;;;12.55;10.20;;;5.60;79.60;;;;;;5121575;28;20480;-87
2023/02/10 01:47:49;;;;;;;11.98;9.23;;;5.60;79.70;;;;;;5122991;28;20057;-87
2023/02/10 01:50:19;;;;;;;11.68;9.50;;;5.60;79.60;;;;;;5144920;27;20531;-87
2023/02/10 01:52:46;;;;;;;11.70;9.48;;;5.60;79.60;;;;;;5126201;28;20088;-88
2023/02/10 01:55:16;;;;;;;12.82;9.45;;;5.60;79.60;;;;;;5121268;28;20016;-86
2023/02/10 01:57:44;;;;;;;13.00;10.00;;;5.60;79.60;;;;;;5121473;28;20483;-87
2023/02/10 02:00:12;;;;;;;12.10;9.10;;;5.60;79.60;;;;;;5121669;28;20027;-87
2023/02/10 02:02:40;;;;;;;11.20;9.25;;;5.60;79.60;;;;;;5116588;28;20067;-87
2023/02/10 02:05:18;;;;;;;11.50;9.43;;;5.60;79.60;;;;;;5132663;27;20019;-88
2023/02/10 02:07:44;;;;;;;13.75;9.63;;;5.60;79.60;;;;;;5131366;27;20035;-87
2023/02/10 02:10:10;;;;;;;12.55;9.77;;;5.60;79.60;;;;;;5115104;28;20142;-87
2023/02/10 02:12:51;;;;;;;11.95;10.07;;;5.60;79.60;;;;;;5114159;28;20581;-87
2023/02/10 02:15:35;;;;;;;12.43;9.70;;;5.60;79.60;;;;;;5114827;28;20122;-88
2023/02/10 02:18:19;;;;;;;11.88;9.20;;;5.60;79.60;;;;;;5115168;28;20126;-87
2023/02/10 02:21:03;;;;;;;12.00;9.55;;;5.60;79.60;;;;;;5132294;27;20032;-87
2023/02/10 02:23:44;;;;;;;11.52;9.43;;;5.60;79.60;;;;;;5132019;27;20032;-87
2023/02/10 02:26:47;;;;;;;11.75;9.25;;;5.60;79.60;;;;;;5131212;27;20027;-89
2023/02/10 02:29:31;;;;;;;10.93;9.10;;;5.60;79.60;;;;;;5130530;27;20024;-83
2023/02/10 02:31:59;;;;;;;11.88;9.07;;;5.60;79.60;;;;;;5132167;28;20111;-88
2023/02/10 02:34:34;;;;;;;12.02;9.65;;;5.60;79.60;;;;;;5130902;28;20091;-87
2023/02/10 02:37:32;;;;;;;11.93;10.13;;;5.50;79.60;;;;;;5131309;28;20078;-86
2023/02/10 02:39:58;;;;;;;12.10;10.10;;;5.50;79.70;;;;;;5130590;28;20073;-87
2023/02/10 02:42:26;;;;;;;13.13;9.52;;;5.50;79.60;;;;;;5113714;28;20028;-86
2023/02/10 02:45:02;;;;;;;12.68;9.90;;;5.50;79.70;;;;;;5132439;28;20030;-87
2023/02/10 02:47:41;;;;;;;11.55;9.27;;;5.50;79.70;;;;;;5114924;28;20024;-88
2023/02/10 02:50:25;;;;;;;11.65;9.52;;;5.50;79.70;;;;;;5130670;28;20066;-88
2023/02/10 02:53:17;;;;;;;10.88;9.00;;;5.50;79.70;;;;;;5115168;28;20036;-87
2023/02/10 02:56:06;;;;;;;9.98;8.48;;;5.50;79.60;;;;;;5130849;28;20032;-87
2023/02/10 02:58:56;;;;;;;10.85;9.23;;;5.50;79.70;;;;;;5116308;28;20104;-87
2023/02/10 03:01:46;;;;;;;11.82;9.35;;;5.50;79.70;;;;;;5117825;28;20035;-87
2023/02/10 03:04:15;;;;;;;11.25;8.82;;;5.50;79.70;;;;;;5135285;27;20062;-88
2023/02/10 03:06:40;;;;;;;11.60;9.38;;;5.50;79.60;;;;;;5134888;27;20023;-87
2023/02/10 03:09:06;;;;;;;10.95;9.25;;;5.50;79.70;;;;;;5134595;27;20547;-87
2023/02/10 03:11:32;;;;;;;11.43;9.32;;;5.50;79.70;;;;;;5117707;28;20027;-88
2023/02/10 03:13:58;;;;;;;11.18;9.18;;;5.50;79.70;;;;;;5100023;28;20048;-88
2023/02/10 03:16:24;;;;;;;11.70;9.00;;;5.50;79.70;;;;;;5134618;27;20039;-87
2023/02/10 03:18:50;;;;;;;11.20;8.98;;;5.50;79.70;;;;;;5118683;28;20540;-88
2023/02/10 03:21:16;;;;;;;11.52;9.40;;;5.50;79.70;;;;;;5134586;27;20024;-86
2023/02/10 03:23:41;;;;;;;11.43;9.55;;;5.40;79.70;;;;;;5117462;28;20073;-88
2023/02/10 03:26:07;;;;;;;11.55;9.75;;;5.50;79.70;;;;;;5117322;28;20035;-88
2023/02/10 03:28:33;;;;;;;11.60;9.48;;;5.50;79.70;;;;;;5116968;28;20020;-88
2023/02/10 03:31:06;;;;;;;11.18;9.10;;;5.50;79.70;;;;;;5117106;28;20123;-87
2023/02/10 03:33:31;;;;;;;11.60;9.45;;;5.50;79.80;;;;;;5134020;27;20036;-87
2023/02/10 03:35:58;;;;;;;11.18;9.68;;;5.40;79.70;;;;;;5116991;28;20056;-87
2023/02/10 03:38:25;;;;;;;10.10;9.05;;;5.40;79.70;;;;;;5116765;28;20028;-87
2023/02/10 03:40:52;;;;;;;12.07;9.68;;;5.40;79.70;;;;;;5134052;27;20035;-88
2023/02/10 03:43:18;;;;;;;11.13;9.38;;;5.40;79.70;;;;;;5117164;28;20024;-85
2023/02/10 03:45:45;;;;;;;11.25;8.98;;;5.40;79.70;;;;;;5133545;27;20027;-88
2023/02/10 03:48:10;;;;;;;10.30;9.00;;;5.40;79.70;;;;;;5134111;27;20023;-85
2023/02/10 03:50:36;;;;;;;10.23;8.65;;;5.40;79.70;;;;;;5117363;28;20032;-87
2023/02/10 03:53:03;;;;;;;10.93;9.35;;;5.40;79.70;;;;;;5118216;28;20468;-87
2023/02/10 03:55:28;;;;;;;10.60;9.27;;;5.40;79.80;;;;;;5116565;28;20118;-88
2023/02/10 03:57:54;;;;;;;10.80;8.52;;;5.40;79.80;;;;;;5134517;27;20424;-88
2023/02/10 04:00:20;;;;;;;12.23;9.18;;;5.40;79.80;;;;;;5133396;27;20023;-87
2023/02/10 04:02:46;;;;;;;10.88;8.98;;;5.40;79.70;;;;;;5133625;27;20028;-87
2023/02/10 04:05:12;;;;;;;11.23;8.85;;;5.40;79.80;;;;;;5116392;28;20122;-88
2023/02/10 04:07:38;;;;;;;9.80;8.38;;;5.30;79.70;;;;;;5100054;28;20473;-88
2023/02/10 04:10:05;;;;;;;11.27;8.88;;;5.30;79.70;;;;;;5132472;27;20096;-88
2023/02/10 04:12:31;;;;;;;10.90;8.95;;;5.30;79.80;;;;;;5134162;27;20031;-88
2023/02/10 04:14:57;;;;;;;11.63;9.63;;;5.30;79.70;;;;;;5115971;28;20060;-86
2023/02/10 04:17:23;;;;;;;11.70;9.27;;;5.30;79.70;;;;;;5133336;27;20111;-88
2023/02/10 04:19:49;;;;;;;11.98;9.65;;;5.30;79.70;;;;;;5133101;27;20051;-88
2023/02/10 04:22:15;;;;;;;12.25;9.40;;;5.20;79.70;;;;;;5116517;28;20501;-88
2023/02/10 04:24:41;;;;;;;10.93;9.23;;;5.20;79.70;;;;;;5115685;28;20019;-88
2023/02/10 04:27:06;;;;;;;10.50;8.77;;;5.20;79.70;;;;;;5132841;27;20032;-87
2023/02/10 04:29:33;;;;;;;11.00;8.98;;;5.20;79.70;;;;;;5116081;28;20036;-86
2023/02/10 04:31:59;;;;;;;10.43;9.20;;;5.20;79.70;;;;;;5132791;27;20035;-88
2023/02/10 04:34:25;;;;;;;11.10;8.98;;;5.20;79.70;;;;;;5115688;28;20043;-87
2023/02/10 04:36:51;;;;;;;11.35;9.07;;;5.10;79.70;;;;;;5132796;27;20039;-86
2023/02/10 04:39:17;;;;;;;11.43;9.23;;;5.10;79.70;;;;;;5133529;27;20104;-87
2023/02/10 04:41:43;;;;;;;12.25;9.70;;;5.10;79.70;;;;;;5133151;27;20050;-88
2023/02/10 04:44:08;;;;;;;12.02;9.70;;;5.10;79.70;;;;;;5115274;28;20117;-87
2023/02/10 04:46:34;;;;;;;12.35;9.63;;;5.10;79.70;;;;;;5115370;28;20027;-87
2023/02/10 04:49:00;;;;;;;11.48;8.98;;;5.10;79.70;;;;;;5115379;28;20035;-88
2023/02/10 04:51:26;;;;;;;11.38;9.05;;;5.10;79.70;;;;;;5115053;28;20030;-88
2023/02/10 04:53:52;;;;;;;12.18;9.70;;;5.00;79.70;;;;;;5115159;28;20020;-88
2023/02/10 04:56:17;;;;;;;12.63;9.60;;;5.00;79.70;;;;;;5133203;27;20114;-89
2023/02/10 04:58:43;;;;;;;11.05;9.45;;;5.00;79.80;;;;;;5115888;28;20509;-87
2023/02/10 05:01:09;;;;;;;11.73;9.15;;;4.90;79.70;;;;;;5133005;27;20024;-86
2023/02/10 05:03:35;;;;;;;12.05;9.80;;;4.90;79.80;;;;;;5120414;28;20104;-85
2023/02/10 05:06:09;;;;;;;12.32;10.25;;;4.90;79.70;;;;;;5121831;28;20361;-87
2023/02/10 05:08:40;;;;;;;12.50;10.23;;;4.90;79.80;;;;;;5132905;27;20042;-88
2023/02/10 05:11:13;;;;;;;10.93;8.68;;;4.80;79.80;;;;;;5115759;28;20383;-88
2023/02/10 05:13:43;;;;;;;11.65;9.93;;;4.80;79.80;;;;;;5114952;28;20369;-87
2023/02/10 05:16:10;;;;;;;11.77;9.50;;;4.80;79.80;;;;;;5132073;27;20024;-88
2023/02/10 05:18:36;;;;;;;11.55;9.15;;;4.80;79.80;;;;;;5132688;27;20452;-89
2023/02/10 05:21:03;;;;;;;12.32;9.88;;;4.80;79.80;;;;;;5132694;27;20026;-88
2023/02/10 05:23:29;;;;;;;12.02;9.93;;;4.70;79.80;;;;;;5138295;27;20115;-88
2023/02/10 05:25:55;;;;;;;13.02;10.18;;;4.70;79.80;;;;;;5118059;28;20135;-87
2023/02/10 05:28:20;;;;;;;14.20;10.98;;;4.70;79.80;;;;;;5115657;28;20496;-88
2023/02/10 05:30:47;;;;;;;12.35;9.88;;;4.70;79.80;;;;;;5115965;28;20047;-84
2023/02/10 05:33:14;;;;;;;12.77;10.25;;;4.70;79.80;;;;;;5114671;28;20092;-85
2023/02/10 05:35:40;;;;;;;14.88;10.70;;;4.70;80.50;;;;;;5114531;28;20080;-83
2023/02/10 05:38:05;;;;;;;13.45;10.25;;;4.70;79.80;;;;;;5114353;28;20023;-83
2023/02/10 05:40:31;;;;;;;14.40;10.57;;;4.60;79.80;;;;;;5114765;28;20027;-84
2023/02/10 05:42:57;;;;;;;13.65;10.55;;;4.60;79.90;;;;;;5114755;28;20015;-84
2023/02/10 05:45:23;;;;;;;13.10;10.45;;;4.50;79.80;;;;;;5131263;27;20034;-82
2023/02/10 05:47:51;;;;;;;13.88;10.30;;;4.50;79.90;;;;;;5131890;27;20023;-83
2023/02/10 05:50:17;;;;;;;13.60;10.02;;;4.50;79.90;;;;;;5131062;27;20092;-83
2023/02/10 05:52:44;;;;;;;12.55;10.00;;;4.50;79.80;;;;;;5114088;28;20076;-85
2023/02/10 05:55:10;;;;;;;12.27;9.80;;;4.50;79.80;;;;;;5114041;28;20092;-83
2023/02/10 05:57:36;;;;;;;13.57;10.65;;;4.50;79.80;;;;;;5115303;28;20468;-85
2023/02/10 06:00:04;;;;;;;13.32;10.38;;;4.50;79.80;;;;;;5132846;27;20032;-84
2023/02/10 06:02:37;;;;;;;13.02;10.00;;;4.50;79.80;;;;;;5131679;27;20034;-85
2023/02/10 06:05:03;;;;;;;13.45;9.52;;;4.40;79.80;;;;;;5115009;28;20031;-82
2023/02/10 06:07:29;;;;;;;14.05;10.82;;;4.40;79.90;;;;;;5114376;28;20023;-82
2023/02/10 06:09:55;;;;;;;13.70;11.05;;;4.40;79.90;;;;;;5114464;27;20503;-91
2023/02/10 06:12:21;;;;;;;15.30;11.75;;;4.40;79.90;;;;;;5114141;28;20019;-84
2023/02/10 06:14:47;;;;;;;14.13;10.88;;;4.30;79.80;;;;;;5130675;27;20050;-84
2023/02/10 06:17:13;;;;;;;13.43;10.07;;;4.30;79.80;;;;;;5114002;27;20407;-84
2023/02/10 06:19:39;;;;;;;15.02;10.85;;;4.30;79.80;;;;;;5113686;28;20106;-84
2023/02/10 06:22:07;;;;;;;12.88;10.32;;;4.30;79.80;;;;;;5096622;28;20099;-82
2023/02/10 06:24:33;;;;;;;14.80;11.75;;;4.20;79.80;;;;;;5113599;28;20041;-83
2023/02/10 06:26:59;;;;;;;13.32;10.88;;;4.20;79.80;;;;;;5114539;28;20091;-84
2023/02/10 06:29:25;;;;;;;12.93;10.43;;;4.20;79.80;;;;;;5113517;28;20036;-85
2023/02/10 06:31:50;;;;;;;14.77;11.45;;;4.20;79.80;;;;;;5130816;27;20114;-85
2023/02/10 06:34:16;;;;;;;14.32;11.13;;;4.20;79.80;;;;;;5113246;28;20027;-85
2023/02/10 06:36:42;;;;;;;15.57;11.60;;;4.20;79.80;;;;;;5130502;28;20035;-85
2023/02/10 06:39:08;;;;;;;13.75;10.65;;;4.20;79.80;;;;;;5131684;28;20016;-84
2023/02/10 06:41:34;;;;;;;14.27;11.13;;;4.20;79.80;;;;;;5130607;28;20495;-84
2023/02/10 06:44:00;;;;;;;15.23;11.60;;;4.10;79.80;;;;;;5131235;28;20020;-86
2023/02/10 06:46:26;;;;;;;14.85;11.60;;;4.10;79.80;;;;;;5114379;28;20039;-85
2023/02/10 06:48:52;;;;;;;13.43;10.68;;;4.10;79.80;;;;;;5130783;28;20030;-82
2023/02/10 06:51:19;;;;;;;12.55;9.90;;;4.10;79.80;;;;;;5130241;28;20061;-85
2023/02/10 06:53:47;;;;;;;14.05;11.02;;;4.10;79.80;;;;;;5137285;28;20020;-85
2023/02/10 06:56:13;;;;;;;14.85;11.07;;;4.10;79.80;;;;;;5140274;28;20418;-86
2023/02/10 06:58:39;;;;;;;14.93;11.27;;;4.00;79.70;;;;;;5121367;28;20077;-83
2023/02/10 07:01:13;;;;;;;14.73;11.80;;;4.00;79.70;;;;;;5114907;28;20096;-83
2023/02/10 07:03:39;;;;;;;15.45;11.80;;;4.00;79.70;;;;;;5131584;28;20437;-85
2023/02/10 07:06:05;;;;;;;15.70;12.15;;;4.00;79.70;;;;;;5130535;28;20048;-85
2023/02/10 07:08:31;;;;;;;14.95;11.75;;;4.00;79.70;;;;;;5097151;28;20058;-85
2023/02/10 07:10:57;;;;;;;14.45;11.27;;;4.00;79.70;;;;;;5113285;28;20031;-87
2023/02/10 07:13:23;;;;;;;16.17;11.88;;;4.00;79.70;;;;;;5130480;28;20046;-85
2023/02/10 07:15:49;;;;;;;14.32;11.13;;;4.00;79.70;;;;;;5113212;28;20039;-84
2023/02/10 07:18:15;;;;;;;15.45;11.82;;;4.00;79.70;;;;;;5130091;28;20528;-83
2023/02/10 07:20:41;;;;;;;16.85;12.00;;;3.90;79.70;;;;;;5098363;28;20031;-85
2023/02/10 07:23:07;;;;;;;13.95;11.38;;;3.90;79.70;;;;;;5116207;28;20038;-84
2023/02/10 07:25:33;;;;;;;15.48;11.38;;;3.90;79.70;;;;;;5114177;28;20417;-86
2023/02/10 07:27:58;;;;;;;16.85;11.82;;;3.90;79.70;;;;;;5112913;28;20103;-86
2023/02/10 07:30:25;;;;;;;15.48;12.02;;;3.90;79.70;;;;;;5113906;28;20031;-83
2023/02/10 07:32:51;;;;;;;15.85;12.18;;;4.00;79.80;;;;;;5113141;28;20030;-83
2023/02/10 07:35:17;;;;;;;16.27;12.02;;;3.90;79.70;;;;;;5096481;28;20031;-83
2023/02/10 07:37:43;;;;;;;14.75;11.98;;;3.90;79.70;;;;;;5096621;28;20446;-85
2023/02/10 07:40:10;;;;;;;17.15;12.43;;;3.90;79.70;;;;;;5096243;28;20028;-86
2023/02/10 07:42:35;;;;;;;15.15;11.70;;;3.90;79.70;;;;;;5130049;28;20130;-85
2023/02/10 07:45:19;;;;;;;16.90;12.43;;;3.90;79.70;;;;;;5115527;28;20026;-84
2023/02/10 07:47:45;;;;;;;15.90;11.93;;;3.90;79.70;;;;;;5116491;28;20395;-85
2023/02/10 07:50:11;;;;;;;16.40;12.30;;;3.90;79.70;;;;;;5116511;28;20035;-84
2023/02/10 07:52:37;;;;;;;15.50;11.73;;;3.90;79.70;;;;;;5133606;27;20028;-85
2023/02/10 07:55:04;;;;;;;15.30;10.90;;;3.90;79.70;;;;;;5117688;28;20031;-83
2023/02/10 07:57:30;;;;;;;16.80;12.05;;;3.90;79.70;;;;;;5133235;27;20032;-84
2023/02/10 07:59:56;;;;;;;15.60;12.20;;;3.90;79.70;;;;;;5133542;27;20047;-84
2023/02/10 08:02:22;;;;;;;17.02;13.07;;;3.90;79.80;;;;;;5133517;27;20468;-83
2023/02/10 08:04:48;;;;;;;17.35;12.50;;;3.90;79.70;;;;;;5133533;27;20015;-84
2023/02/10 08:07:14;;;;;;;14.38;10.93;;;3.90;79.70;;;;;;5133351;27;20023;-83
2023/02/10 08:09:39;;;;;;;16.23;12.38;;;4.00;79.80;;;;;;5117020;28;20035;-84
2023/02/10 08:12:05;;;;;;;15.80;11.90;;;3.90;79.80;;;;;;5134025;27;20383;-85
2023/02/10 08:14:31;;;;;;;17.70;13.32;;;4.00;79.80;;;;;;5133121;27;20039;-83
2023/02/10 08:16:57;;;;;;;18.95;12.52;;;4.00;79.80;;;;;;5116031;28;20063;-85
2023/02/10 08:19:23;;;;;;;15.73;11.93;;;4.00;79.80;;;;;;5133106;27;20490;-84
2023/02/10 08:21:49;;;;;;;15.55;11.77;;;4.00;79.80;;;;;;5116677;28;20031;-84
2023/02/10 08:24:14;;;;;;;17.17;12.68;;;4.00;79.70;;;;;;5116249;28;20077;-84
2023/02/10 08:26:41;;;;;;;15.70;11.88;;;4.00;79.70;;;;;;5117131;28;20024;-83
2023/02/10 08:29:07;;;;;;;16.20;12.27;;;4.00;79.70;;;;;;5115713;28;20036;-84
2023/02/10 08:31:33;;;;;;;17.10;11.90;;;4.00;79.80;;;;;;5115948;28;20480;-82
2023/02/10 08:33:59;;;;;;;15.90;11.32;;;4.00;79.80;;;;;;5099203;28;20487;-84
2023/02/10 08:36:25;;;;;;;15.10;11.68;;;4.00;79.80;;;;;;5116634;28;20221;-83
2023/02/10 08:38:51;;;;;;;15.20;11.55;;;4.10;79.80;;;;;;5134660;27;20027;-83
2023/02/10 08:41:17;;;;;;;15.85;12.20;;;4.10;79.80;;;;;;5116287;28;20032;-84
2023/02/10 08:43:43;;;;;;;16.27;11.48;;;4.10;79.90;;;;;;5116856;28;20045;-84
2023/02/10 08:46:09;;;;;;;15.82;11.52;;;4.10;79.80;;;;;;5135521;27;20107;-84
2023/02/10 08:48:36;;;;;;;15.85;11.43;;;4.10;79.80;;;;;;5099064;28;20030;-87
2023/02/10 08:51:09;;;;;;;15.82;11.57;;;4.10;79.80;;;;;;5115188;28;20070;-87
2023/02/10 08:53:35;;;;;;;14.35;11.70;;;4.10;79.80;;;;;;5116456;28;20034;-86
2023/02/10 08:56:05;;;;;;;15.98;11.65;;;4.10;79.80;;;;;;5115031;28;20028;-88
2023/02/10 08:58:31;;;;;;;16.67;12.68;;;4.10;79.80;;;;;;5132833;27;20032;-87
2023/02/10 09:00:57;;;;;;;15.73;11.80;;;4.20;79.90;;;;;;5132426;27;20024;-85
2023/02/10 09:03:23;;;;;;;15.45;11.65;;;4.20;79.80;;;;;;5115625;28;20036;-86
2023/02/10 09:05:49;;;;;;;15.95;12.10;;;4.20;79.80;;;;;;5131942;27;20047;-85
2023/02/10 09:08:16;;;;;;;17.38;12.02;;;4.20;79.80;;;;;;5114942;28;20041;-86
2023/02/10 09:10:44;;;;;;;15.48;11.27;;;4.20;79.90;;;;;;5114598;28;20031;-87
2023/02/10 09:13:11;;;;;;;15.52;11.40;;;4.30;79.90;;;;;;5132210;27;20532;-86
2023/02/10 09:15:39;;;;;;;16.52;12.63;;;4.20;79.80;;;;;;5132120;27;20070;-85
2023/02/10 09:18:05;;;;;;;15.25;11.48;;;4.30;79.90;;;;;;5134078;27;20050;-86
2023/02/10 09:20:31;;;;;;;16.27;11.48;;;4.30;79.90;;;;;;5132493;27;20023;-88
2023/02/10 09:22:57;;;;;;;17.08;12.52;;;4.20;79.80;;;;;;5098561;28;20024;-85
2023/02/10 09:25:23;;;;;;;14.93;10.95;;;4.30;79.90;;;;;;5115263;28;20023;-87
2023/02/10 09:27:51;;;;;;;15.60;11.52;;;4.30;79.90;;;;;;5115302;28;20027;-86
2023/02/10 09:30:17;;;;;;;15.60;12.05;;;4.30;79.90;;;;;;5131827;27;20040;-85
2023/02/10 09:32:43;;;;;;;15.02;11.43;;;4.30;79.90;;;;;;5132141;27;20031;-86
2023/02/10 09:35:09;;;;;;;15.50;10.85;;;4.30;79.90;;;;;;5097895;28;20062;-87
2023/02/10 09:37:35;;;;;;;17.17;11.02;;;4.30;79.90;;;;;;5114731;28;20028;-86
2023/02/10 09:40:00;;;;;;;16.10;11.20;;;4.40;80.00;;;;;;5097743;28;20463;-86
2023/02/10 09:42:42;;;;;;;14.57;11.10;;;4.40;80.00;;;;;;5132298;27;20578;-85
2023/02/10 09:45:22;;;;;;;15.32;10.63;;;4.40;80.00;;;;;;5135161;27;20525;-86
2023/02/10 09:48:08;;;;;;;14.85;10.63;;;4.40;80.00;;;;;;5133672;27;20114;-87
2023/02/10 09:51:13;;;;;;;14.25;10.75;;;4.40;80.60;;;;;;5114749;28;20058;-87
2023/02/10 09:53:39;;;;;;;15.68;10.55;;;4.40;80.00;;;;;;5101377;28;20062;-82
2023/02/10 09:56:08;;;;;;;16.00;11.10;;;4.40;79.90;;;;;;5114271;28;20027;-86
2023/02/10 09:58:51;;;;;;;15.68;10.82;;;4.50;80.00;;;;;;5113951;28;20034;-84
2023/02/10 10:01:24;;;;;;;15.73;10.45;;;4.50;80.00;;;;;;5130945;27;20088;-86
2023/02/10 10:04:05;;;;;;;15.13;10.73;;;4.50;80.00;;;;;;5131120;27;20031;-85
2023/02/10 10:06:36;;;;;;;16.48;11.07;;;4.50;80.10;;;;;;5131716;27;20048;-86
2023/02/10 10:09:18;;;;;;;15.13;10.93;;;4.50;80.10;;;;;;5113395;28;20066;-86
2023/02/10 10:11:48;;;;;;;15.60;11.07;;;4.60;80.10;;;;;;5115227;28;20041;-85
2023/02/10 10:14:17;;;;;;;16.02;11.48;;;4.60;80.10;;;;;;5113786;28;20079;-87
2023/02/10 10:16:49;;;;;;;17.23;11.57;;;4.60;80.00;;;;;;5131248;27;20042;-85
2023/02/10 10:19:47;;;;;;;14.57;10.68;;;4.60;80.00;;;;;;5131626;27;20030;-83
2023/02/10 10:22:22;;;;;;;15.00;10.68;;;4.70;80.10;;;;;;5131791;27;20046;-85
2023/02/10 10:25:12;;;;;;;16.58;11.05;;;4.70;80.10;;;;;;5114074;28;20168;-84
2023/02/10 10:28:06;;;;;;;16.70;10.27;;;4.70;80.10;;;;;;5131430;27;20052;-86
2023/02/10 10:30:48;;;;;;;14.63;10.57;;;4.80;80.10;;;;;;5130765;27;20034;-85
2023/02/10 10:33:21;;;;;;;15.18;10.57;;;4.80;80.10;;;;;;5114487;28;20495;-85
2023/02/10 10:35:48;;;;;;;15.27;10.55;;;4.80;80.10;;;;;;5130641;28;20077;-84
2023/02/10 10:38:23;;;;;;;15.23;10.90;;;4.80;80.10;;;;;;5130527;28;20044;-84
2023/02/10 10:40:52;;;;;;;;;;;4.80;80.10;;;;;;5113876;28;20118;-84
2023/02/10 10:43:27;;;;;;;12.75;8.85;;;4.80;79.90;;;;;;5113388;28;19904;-85
2023/02/10 10:45:59;;;;;;;13.55;9.45;;;4.90;79.90;;;;;;5113701;28;20139;-83
2023/02/10 10:48:29;;;;;;;13.77;9.82;;;4.90;80.00;;;;;;5130896;28;20115;-87
2023/02/10 10:51:03;;;;;;;14.93;9.95;;;5.00;80.00;;;;;;5113510;28;20044;-83
2023/02/10 10:53:41;;;;;;;13.98;9.68;;;5.00;80.10;;;;;;5114467;28;20172;-85
2023/02/10 10:56:43;;;;;;;14.60;9.85;;;5.00;80.10;;;;;;5130812;28;20027;-84
2023/02/10 10:59:17;;;;;;;13.38;9.55;;;5.10;80.10;;;;;;5130876;28;20118;-85
2023/02/10 11:01:45;;;;;;;13.45;9.38;;;5.10;80.00;;;;;;5113619;28;20456;-83
2023/02/10 11:04:12;;;;;;;16.85;10.43;;;5.10;80.00;;;;;;5130606;28;20023;-85
2023/02/10 11:06:39;;;;;;;14.27;9.68;;;5.10;80.00;;;;;;5131035;28;20075;-85
2023/02/10 11:09:17;;;;;;;19.48;11.48;;;5.20;80.10;;;;;;5113660;28;20032;-87
2023/02/10 11:11:43;;;;;;;14.88;9.43;;;5.20;80.70;;;;;;5130171;28;20501;-83
2023/02/10 11:14:17;;;;;;;15.95;10.13;;;5.20;80.00;;;;;;5112854;28;20052;-87
2023/02/10 11:16:52;;;;;;;14.98;9.65;;;5.30;80.10;;;;;;5129977;28;20445;-86
2023/02/10 11:19:35;;;;;;;14.98;9.63;;;5.30;80.00;;;;;;5132006;27;20459;-86
2023/02/10 12:21:34;;;;;;;12.88;8.05;;;5.90;80.00;;;;;;5050504;28;20088;-81
2023/02/10 12:24:27;;;;;;;14.65;8.73;;;6.00;80.10;;;;;;5020645;28;20086;-83
2023/02/10 12:27:02;;;;;;;14.30;8.15;;;6.00;80.10;;;;;;5097082;28;20034;-82
2023/02/10 12:29:52;;;;;;;15.57;8.45;;;6.10;80.20;;;;;;5082341;28;20023;-82
2023/02/10 12:33:11;;;;;;;14.57;8.25;;;6.10;80.30;;;;;;5097701;28;20456;-81
2023/02/10 12:35:45;;;;;;;13.50;7.82;;;6.20;80.30;;;;;;5100718;28;20035;-81
2023/02/10 12:38:25;;;;;;;17.00;9.20;;;6.30;80.30;;;;;;5116255;28;20031;-81
2023/02/10 12:41:09;;;;;;;14.75;8.77;;;6.30;80.20;;;;;;5115567;28;20035;-83
2023/02/10 12:51:03;;;;;;;12.43;7.88;;;6.50;80.20;;;;;;5062653;28;20059;-85
2023/02/10 12:53:36;;;;;;;16.38;8.68;;;6.60;80.20;;;;;;5114694;28;20024;-86
2023/02/10 12:56:12;;;;;;;14.98;8.30;;;6.60;80.30;;;;;;5114904;28;20099;-87
2023/02/10 13:10:47;;;;;;;10.07;6.50;;;6.90;80.50;;;;;;5115874;28;20440;-86
2023/02/10 13:17:43;;;;;;;11.07;6.90;;;7.10;80.60;;;;;;5115688;28;20072;-82
2023/02/10 13:20:22;;;;;;;12.02;7.32;;;7.10;80.50;;;;;;5080851;28;20035;-82
2023/02/10 13:22:48;;;;;;;12.10;7.03;;;7.20;80.80;;;;;;5116271;27;20483;-83
2023/02/10 13:25:28;;;;;;;13.20;7.70;;;7.20;80.70;;;;;;5118037;27;20038;-83
2023/02/10 13:27:57;;;;;;;13.25;7.80;;;7.30;80.80;;;;;;5135468;27;20027;-83
2023/02/10 13:31:01;;;;;;;14.00;7.68;;;7.40;80.90;;;;;;5134824;27;20045;-81
2023/02/10 13:33:39;;;;;;;12.00;6.88;;;7.50;81.00;;;;;;5135656;27;20095;-84
2023/02/10 13:36:13;;;;;;;12.20;6.90;;;7.60;81.00;;;;;;5135974;27;20027;-90
2023/02/10 13:38:39;;;;;;;13.27;7.07;;;7.60;81.00;;;;;;5135092;27;20023;-85
2023/02/10 13:41:45;;;;;;;13.77;8.23;;;7.70;81.00;;;;;;5134855;27;20038;-87
2023/02/10 13:44:21;;;;;;;13.70;7.38;;;7.70;81.00;;;;;;5135897;27;20092;-84
2023/02/10 13:47:14;;;;;;;14.65;7.70;;;7.80;81.10;;;;;;5117597;27;20027;-91
2023/02/10 13:50:15;;;;;;;12.77;7.25;;;7.90;81.20;;;;;;5134068;27;20081;-89
2023/02/10 13:53:04;;;;;;;11.40;7.28;;;7.90;81.00;;;;;;5135425;27;20031;-90
2023/02/10 13:55:39;;;;;;;12.10;7.07;;;8.00;81.20;;;;;;5117804;27;20114;-88
2023/02/10 13:58:13;;;;;;;11.88;7.22;;;8.10;81.20;;;;;;5134428;27;20089;-88
2023/02/10 14:00:44;;;;;;;11.27;7.30;;;8.10;81.10;;;;;;5134358;27;20058;-84
2023/02/10 14:03:10;;;;;;;12.75;7.28;;;8.20;81.20;;;;;;5134387;27;20098;-85
2023/02/10 14:05:50;;;;;;;11.52;7.18;;;8.20;81.10;;;;;;5116695;27;20050;-84
2023/02/10 14:08:40;;;;;;;11.27;7.50;;;8.30;81.40;;;;;;5134258;27;20064;-83
2023/02/10 14:11:15;;;;;;;13.55;7.50;;;8.40;81.50;;;;;;5134921;27;20352;-84
2023/02/10 14:13:57;;;;;;;12.00;7.63;;;8.40;81.40;;;;;;5134368;27;20088;-84
2023/02/10 14:16:31;;;;;;;13.20;8.35;;;8.50;81.40;;;;;;5134570;27;20034;-87
2023/02/10 14:19:18;;;;;;;11.75;7.45;;;8.50;81.40;;;;;;5134625;27;20041;-83
2023/02/10 14:21:46;;;;;;;11.00;8.07;;;8.60;81.40;;;;;;5135150;27;20065;-90